Terminal Aerodrome Forecast
Issued by NWS Sterling, VA

Current Version | Previous Version | Graphics & Text | Print | Product List | Glossary On
Versions: 1 2 3 4 5 6 7 8 9 10 11 12 13 14 15 16 17 18 19 20 21 22 23 24 25
000
FTUS41 KLWX 241400 AAA
TAFIAD
TAF AMD
KIAD 241459Z 2415/2518 21012KT P6SM BKN025
     FM241700 20017G26KT P6SM SCT040
     FM242000 20017G26KT P6SM SCT250
     FM250000 21011KT P6SM SCT250 WS020/21040KT
     FM250300 22009KT P6SM SCT250
     FM250800 29006KT P6SM SCT150=

USA.gov is the U.S. government's official web portal to all federal, state and local government web resources and services.